Time;durP1;ratioP1;P1;durP2;ratioP2;P2;SDS_P1;SDS_P2;PMS_P1;PMS_P2;Temp;Humidity;BMP_temperature;BMP_pressure;BME280_temperature;BME280_humidity;BME280_pressure;Samples;Min_cycle;Max_cycle;Signal;HPM_P1;HPM_P2
2022/11/14 00:01:17;;;;;;;17.95;12.60;;;6.00;99.90;;;;;;5054738;28;20504;-43
2022/11/14 00:03:42;;;;;;;20.20;14.23;;;6.00;99.90;;;;;;5054572;28;20116;-40
2022/11/14 00:06:08;;;;;;;22.25;14.82;;;5.90;99.90;;;;;;5055195;28;20025;-39
2022/11/14 00:08:34;;;;;;;20.17;15.48;;;5.80;99.90;;;;;;5054503;28;20446;-42
2022/11/14 00:11:00;;;;;;;24.50;16.10;;;5.70;99.90;;;;;;5054605;28;20033;-39
2022/11/14 00:13:25;;;;;;;26.23;15.95;;;5.50;99.90;;;;;;5053457;28;20037;-45
2022/11/14 00:15:55;;;;;;;23.30;16.60;;;5.40;99.90;;;;;;5054699;28;20104;-40
2022/11/14 00:18:20;;;;;;;27.77;19.13;;;5.40;99.90;;;;;;5052518;28;20108;-40
2022/11/14 00:20:47;;;;;;;38.20;19.23;;;5.30;99.90;;;;;;5083562;23;20122;-48
2022/11/14 00:23:13;;;;;;;38.33;20.27;;;5.30;99.90;;;;;;5072649;28;20029;-46
2022/11/14 00:25:38;;;;;;;45.58;20.48;;;5.30;99.90;;;;;;5073530;28;20036;-47
2022/11/14 00:28:04;;;;;;;65.45;21.92;;;5.20;99.90;;;;;;5073257;28;20035;-48
2022/11/14 00:30:29;;;;;;;63.83;28.65;;;5.10;99.90;;;;;;5078973;28;20422;-47
2022/11/14 00:32:55;;;;;;;65.78;33.22;;;5.10;99.90;;;;;;5092665;28;20073;-46
2022/11/14 00:35:20;;;;;;;53.33;21.40;;;5.10;99.90;;;;;;5092487;28;20016;-45
2022/11/14 00:37:46;;;;;;;79.35;20.45;;;5.10;99.90;;;;;;5092255;28;20020;-45
2022/11/14 00:40:13;;;;;;;44.20;20.17;;;5.10;99.90;;;;;;5093419;28;20034;-47
2022/11/14 00:42:39;;;;;;;45.17;22.20;;;5.10;99.90;;;;;;5091729;28;20020;-46
2022/11/14 00:45:05;;;;;;;106.15;24.17;;;5.10;99.90;;;;;;5093133;28;20055;-45
2022/11/14 00:47:30;;;;;;;67.55;22.13;;;5.10;99.90;;;;;;5091901;28;20024;-45
2022/11/14 00:49:55;;;;;;;79.03;26.00;;;5.10;99.90;;;;;;5091680;28;20020;-46
2022/11/14 00:52:21;;;;;;;122.15;26.17;;;5.10;99.90;;;;;;5092629;28;20418;-45
2022/11/14 00:54:46;;;;;;;67.20;25.52;;;5.10;99.90;;;;;;5092944;28;20110;-45
2022/11/14 00:57:12;;;;;;;62.88;26.88;;;5.10;99.90;;;;;;5093209;28;20024;-43
2022/11/14 00:59:37;;;;;;;95.40;27.88;;;5.10;99.90;;;;;;5092895;28;20384;-48
2022/11/14 01:02:03;;;;;;;94.90;26.00;;;5.20;99.90;;;;;;5091923;28;20217;-50
2022/11/14 01:04:29;;;;;;;146.55;24.35;;;5.30;99.90;;;;;;5092595;28;20487;-46
2022/11/14 01:06:54;;;;;;;161.90;26.13;;;5.20;99.90;;;;;;5092580;28;20414;-45
2022/11/14 01:09:20;;;;;;;125.55;23.58;;;5.20;99.90;;;;;;5092541;28;20055;-48
2022/11/14 01:11:45;;;;;;;67.30;22.67;;;5.20;99.90;;;;;;5092215;28;20040;-46
2022/11/14 01:14:11;;;;;;;42.30;23.08;;;5.20;99.90;;;;;;5092046;28;20032;-47
2022/11/14 01:16:36;;;;;;;41.05;22.02;;;5.20;99.90;;;;;;5092304;28;20430;-46
2022/11/14 01:19:03;;;;;;;86.25;22.02;;;5.30;99.90;;;;;;5092369;28;20498;-48
2022/11/14 01:21:29;;;;;;;55.08;19.45;;;5.40;99.90;;;;;;5092106;28;20056;-44
2022/11/14 01:23:54;;;;;;;66.15;21.20;;;5.40;99.90;;;;;;5091732;28;20066;-46
2022/11/14 01:26:20;;;;;;;113.30;18.95;;;5.40;99.90;;;;;;5092565;28;20050;-47
2022/11/14 01:28:45;;;;;;;30.60;17.35;;;5.30;99.90;;;;;;5092222;28;20073;-48
2022/11/14 01:31:14;;;;;;;65.22;18.17;;;5.20;99.90;;;;;;5092029;28;20024;-50
2022/11/14 01:33:40;;;;;;;47.83;17.60;;;5.20;99.90;;;;;;5091314;28;20040;-49
2022/11/14 01:36:07;;;;;;;40.90;19.75;;;5.30;99.90;;;;;;5092071;28;20028;-47
2022/11/14 01:38:33;;;;;;;66.65;17.20;;;5.30;99.90;;;;;;5092156;28;20081;-46
2022/11/14 01:40:58;;;;;;;31.55;18.48;;;5.30;99.90;;;;;;5091961;28;20024;-47
2022/11/14 01:43:29;;;;;;;58.90;16.75;;;5.40;99.90;;;;;;5090230;28;20056;-44
2022/11/14 01:46:22;;;;;;;50.58;17.23;;;5.40;99.90;;;;;;5091869;28;20020;-45
2022/11/14 01:48:53;;;;;;;103.57;18.27;;;5.30;99.90;;;;;;5090318;28;20024;-45
2022/11/14 01:51:26;;;;;;;83.80;18.38;;;5.20;99.90;;;;;;5090625;28;20492;-47
2022/11/14 01:53:54;;;;;;;42.45;17.30;;;5.20;99.90;;;;;;5091196;28;20024;-44
2022/11/14 01:56:45;;;;;;;26.17;16.83;;;5.20;99.90;;;;;;5091503;28;20035;-45
2022/11/14 01:59:14;;;;;;;52.15;17.67;;;5.20;99.90;;;;;;5091906;28;20165;-47
2022/11/14 02:01:52;;;;;;;49.80;17.58;;;5.30;99.90;;;;;;5091714;28;20031;-44
2022/11/14 02:04:24;;;;;;;32.72;17.15;;;5.30;99.90;;;;;;5091640;28;20067;-44
2022/11/14 02:06:53;;;;;;;46.13;17.38;;;5.40;99.90;;;;;;5090305;28;20039;-45
2022/11/14 02:09:19;;;;;;;120.72;16.85;;;5.40;99.90;;;;;;5091588;28;20024;-46
2022/11/14 02:11:45;;;;;;;71.15;17.05;;;5.40;99.90;;;;;;5091356;28;20024;-42
2022/11/14 02:14:11;;;;;;;60.10;17.38;;;5.40;99.90;;;;;;5091090;28;20032;-47
2022/11/14 02:16:40;;;;;;;70.88;17.45;;;5.40;99.90;;;;;;5091561;28;20411;-46
2022/11/14 02:19:09;;;;;;;46.40;16.60;;;5.40;99.90;;;;;;5091486;28;20021;-46
2022/11/14 02:21:34;;;;;;;61.03;17.13;;;5.30;99.90;;;;;;5091149;28;20043;-44
2022/11/14 02:24:00;;;;;;;77.85;17.35;;;5.30;99.90;;;;;;5090785;28;20028;-47
2022/11/14 02:26:26;;;;;;;66.82;16.52;;;5.30;99.90;;;;;;5091305;28;20544;-45
2022/11/14 02:28:52;;;;;;;66.97;16.63;;;5.30;99.90;;;;;;5091485;28;20418;-44
2022/11/14 02:31:17;;;;;;;77.82;16.75;;;5.20;99.90;;;;;;5091193;28;20024;-47
2022/11/14 02:33:43;;;;;;;37.13;15.93;;;5.20;99.90;;;;;;5090481;28;20028;-46
2022/11/14 02:36:09;;;;;;;73.30;17.00;;;5.20;99.90;;;;;;5090066;28;20031;-45
2022/11/14 02:38:34;;;;;;;66.03;17.80;;;5.20;99.90;;;;;;5091597;28;20233;-44
2022/11/14 02:41:00;;;;;;;44.42;15.40;;;5.20;99.90;;;;;;5091336;28;20476;-44
2022/11/14 02:43:26;;;;;;;33.08;14.98;;;5.20;99.90;;;;;;5089679;28;20032;-44
2022/11/14 02:45:51;;;;;;;26.08;16.30;;;5.30;99.90;;;;;;5091373;28;20043;-46
2022/11/14 02:48:17;;;;;;;31.13;16.25;;;5.30;99.90;;;;;;5091639;28;20489;-48
2022/11/14 02:50:42;;;;;;;43.92;15.40;;;5.40;99.90;;;;;;5091237;28;20046;-44
2022/11/14 02:53:08;;;;;;;58.50;16.30;;;5.40;99.90;;;;;;5090685;28;20480;-46
2022/11/14 02:55:33;;;;;;;60.20;15.32;;;5.30;99.90;;;;;;5091178;28;20035;-45
2022/11/14 02:57:59;;;;;;;45.88;15.52;;;5.20;99.90;;;;;;5090959;28;20031;-46
2022/11/14 03:00:25;;;;;;;46.45;15.93;;;5.20;99.90;;;;;;5090814;28;20032;-46
2022/11/14 03:02:52;;;;;;;48.78;15.15;;;5.10;99.90;;;;;;5094186;28;20028;-45
2022/11/14 03:05:17;;;;;;;47.40;15.07;;;5.10;99.90;;;;;;5094960;28;20016;-47
2022/11/14 03:07:43;;;;;;;38.00;16.00;;;5.00;99.90;;;;;;5095392;28;20024;-43
2022/11/14 03:10:10;;;;;;;72.03;15.90;;;4.90;99.90;;;;;;5095846;28;20548;-47
2022/11/14 03:12:36;;;;;;;75.63;15.63;;;4.90;99.90;;;;;;5095731;28;20137;-46
2022/11/14 03:15:02;;;;;;;54.90;15.75;;;4.90;99.90;;;;;;5095036;28;20020;-44
2022/11/14 03:17:31;;;;;;;23.63;14.75;;;4.90;99.90;;;;;;5095438;28;20099;-45
2022/11/14 03:19:57;;;;;;;19.58;14.07;;;4.90;99.90;;;;;;5096352;28;20124;-50
2022/11/14 03:22:22;;;;;;;19.98;14.45;;;4.90;99.90;;;;;;5093796;28;20047;-45
2022/11/14 03:24:48;;;;;;;37.50;15.02;;;5.00;99.90;;;;;;5094267;28;20024;-47
2022/11/14 03:27:13;;;;;;;27.02;14.52;;;5.00;99.90;;;;;;5095173;28;20034;-45
2022/11/14 03:29:39;;;;;;;29.80;14.75;;;5.10;99.90;;;;;;5095057;28;20449;-47
2022/11/14 03:32:04;;;;;;;42.40;15.30;;;5.00;99.90;;;;;;5094226;28;20043;-40
2022/11/14 03:34:30;;;;;;;31.98;14.25;;;5.00;99.90;;;;;;5094615;28;20039;-44
2022/11/14 03:36:55;;;;;;;19.52;14.35;;;4.90;99.90;;;;;;5094441;28;20387;-49
2022/11/14 03:39:21;;;;;;;39.42;14.82;;;4.90;99.90;;;;;;5094785;28;20024;-44
2022/11/14 03:41:46;;;;;;;23.80;13.50;;;4.90;99.90;;;;;;5091626;28;20028;-41
2022/11/14 03:44:12;;;;;;;25.30;14.50;;;4.90;99.90;;;;;;5093888;28;20032;-46
2022/11/14 03:46:37;;;;;;;20.55;14.07;;;4.80;99.90;;;;;;5094202;28;20549;-49
2022/11/14 03:49:03;;;;;;;38.53;13.43;;;4.70;99.90;;;;;;5094328;28;20514;-46
2022/11/14 03:51:28;;;;;;;47.80;15.02;;;4.80;99.90;;;;;;5094088;28;20054;-45
2022/11/14 03:53:54;;;;;;;26.90;13.93;;;4.70;99.90;;;;;;5093229;28;20024;-44
2022/11/14 03:56:19;;;;;;;48.75;15.10;;;4.60;99.90;;;;;;5094014;28;20021;-46
2022/11/14 03:58:45;;;;;;;26.67;14.75;;;4.70;99.90;;;;;;5094011;28;20365;-45
2022/11/14 04:01:10;;;;;;;58.05;15.55;;;4.70;99.90;;;;;;5094033;28;20028;-49
2022/11/14 04:03:36;;;;;;;37.60;16.10;;;4.70;99.90;;;;;;5093052;28;20035;-46
2022/11/14 04:06:02;;;;;;;54.42;16.90;;;4.70;99.90;;;;;;5093797;28;20032;-46
2022/11/14 04:08:27;;;;;;;38.13;14.38;;;4.60;99.90;;;;;;5093743;28;20107;-45
2022/11/14 04:10:53;;;;;;;23.63;14.23;;;4.60;99.90;;;;;;5093752;28;20028;-47
2022/11/14 04:13:18;;;;;;;27.83;14.13;;;4.60;99.90;;;;;;5092821;28;20445;-46
2022/11/14 04:15:45;;;;;;;29.35;13.65;;;4.60;99.90;;;;;;5093892;28;20024;-51
2022/11/14 04:18:10;;;;;;;23.45;13.55;;;4.60;99.90;;;;;;5092563;28;20024;-47
2022/11/14 04:20:36;;;;;;;23.77;15.60;;;4.50;99.90;;;;;;5093645;28;20024;-47
2022/11/14 04:23:01;;;;;;;26.50;14.75;;;4.50;99.90;;;;;;5092868;28;20097;-47
2022/11/14 04:25:27;;;;;;;31.38;16.05;;;4.50;99.90;;;;;;5094431;28;20113;-42
2022/11/14 04:27:52;;;;;;;25.00;14.73;;;4.50;99.90;;;;;;5093496;28;20032;-47
2022/11/14 04:30:18;;;;;;;20.08;13.98;;;4.50;99.90;;;;;;5093472;28;20028;-50
2022/11/14 04:32:45;;;;;;;40.30;15.68;;;4.40;99.90;;;;;;5092431;28;20036;-47
2022/11/14 04:35:10;;;;;;;29.98;15.77;;;4.40;99.90;;;;;;5093395;28;20016;-50
2022/11/14 04:37:38;;;;;;;20.30;14.43;;;4.50;99.90;;;;;;5093091;28;20514;-44
2022/11/14 04:40:04;;;;;;;22.77;15.02;;;4.50;99.90;;;;;;5093049;28;20028;-46
2022/11/14 04:42:29;;;;;;;23.13;15.38;;;4.50;99.90;;;;;;5090457;28;20028;-47
2022/11/14 04:44:55;;;;;;;22.40;15.55;;;4.50;99.90;;;;;;5093144;28;20092;-46
2022/11/14 04:47:21;;;;;;;22.75;15.00;;;4.50;99.90;;;;;;5092899;28;20499;-46
2022/11/14 04:49:46;;;;;;;20.85;14.88;;;4.60;99.90;;;;;;5092934;28;20028;-46
2022/11/14 04:52:12;;;;;;;20.98;14.68;;;4.60;99.90;;;;;;5092232;28;20543;-45
2022/11/14 04:54:37;;;;;;;20.88;13.65;;;4.70;99.90;;;;;;5092778;28;20121;-49
2022/11/14 04:57:03;;;;;;;17.98;14.00;;;4.70;99.90;;;;;;5092911;28;20024;-45
2022/11/14 04:59:28;;;;;;;17.42;12.52;;;4.70;99.90;;;;;;5093162;28;20024;-44
2022/11/14 05:01:54;;;;;;;18.15;13.70;;;4.80;99.90;;;;;;5092268;28;20408;-50
2022/11/14 05:04:19;;;;;;;19.27;13.20;;;4.80;99.90;;;;;;5091195;28;20020;-49
2022/11/14 05:06:45;;;;;;;16.30;13.30;;;4.80;99.90;;;;;;5092686;28;20086;-45
2022/11/14 05:09:10;;;;;;;17.67;13.27;;;4.80;99.90;;;;;;5092613;28;20035;-46
2022/11/14 05:11:36;;;;;;;18.17;12.73;;;4.80;99.90;;;;;;5092574;28;20024;-45
2022/11/14 05:14:01;;;;;;;18.05;12.65;;;4.80;99.90;;;;;;5091841;28;20070;-45
2022/11/14 05:16:27;;;;;;;15.43;12.15;;;4.80;99.90;;;;;;5092540;28;20027;-45
2022/11/14 05:18:53;;;;;;;16.65;12.45;;;4.80;99.90;;;;;;5092450;28;20074;-44
2022/11/14 05:21:19;;;;;;;19.88;13.27;;;4.80;99.90;;;;;;5092153;28;20636;-45
2022/11/14 05:23:45;;;;;;;18.48;13.75;;;4.80;99.90;;;;;;5091105;28;20028;-47
2022/11/14 05:26:13;;;;;;;17.85;12.73;;;4.80;99.90;;;;;;5092628;28;20434;-45
2022/11/14 05:28:39;;;;;;;17.50;13.45;;;4.80;99.90;;;;;;5091919;28;20439;-45
2022/11/14 05:31:11;;;;;;;18.38;12.68;;;4.80;99.90;;;;;;5092199;28;20024;-41
2022/11/14 05:33:36;;;;;;;19.08;13.73;;;4.80;99.90;;;;;;5091449;28;20103;-44
2022/11/14 05:36:07;;;;;;;18.42;12.00;;;4.80;99.90;;;;;;5092449;28;20115;-46
2022/11/14 05:38:33;;;;;;;17.45;13.05;;;4.70;99.90;;;;;;5091903;28;20032;-44
2022/11/14 05:40:59;;;;;;;16.83;12.85;;;4.60;99.90;;;;;;5092103;28;20039;-46
2022/11/14 05:43:27;;;;;;;16.45;12.38;;;4.60;99.90;;;;;;5090342;28;20104;-45
2022/11/14 05:45:57;;;;;;;17.98;13.05;;;4.60;99.90;;;;;;5092284;28;20032;-45
2022/11/14 05:48:22;;;;;;;18.60;14.30;;;4.60;99.90;;;;;;5091724;28;20059;-45
2022/11/14 05:50:48;;;;;;;17.65;13.10;;;4.70;99.90;;;;;;5091909;28;20766;-47
2022/11/14 05:53:13;;;;;;;16.27;13.00;;;4.60;99.90;;;;;;5089241;28;20116;-45
2022/11/14 05:55:42;;;;;;;15.63;13.00;;;4.60;99.90;;;;;;5091917;28;20028;-42
2022/11/14 05:58:07;;;;;;;16.98;13.02;;;4.50;99.90;;;;;;5091766;28;20062;-45
2022/11/14 06:00:33;;;;;;;15.98;13.05;;;4.50;99.90;;;;;;5091662;28;20024;-45
2022/11/14 06:02:59;;;;;;;19.02;14.18;;;4.50;99.90;;;;;;5091040;28;20032;-49
2022/11/14 06:05:24;;;;;;;22.58;13.30;;;4.50;99.90;;;;;;5091719;28;20024;-44
2022/11/14 06:07:57;;;;;;;18.75;14.13;;;4.60;99.90;;;;;;5091649;28;20426;-45
2022/11/14 06:10:23;;;;;;;17.80;13.50;;;4.60;99.90;;;;;;5091756;28;20035;-44
2022/11/14 06:12:49;;;;;;;17.92;13.57;;;4.60;99.90;;;;;;5091077;28;20103;-45
2022/11/14 06:15:14;;;;;;;21.73;14.45;;;4.70;99.90;;;;;;5091614;28;20480;-44
2022/11/14 06:17:40;;;;;;;17.67;14.02;;;4.90;99.90;;;;;;5091792;28;20551;-45
2022/11/14 06:20:06;;;;;;;17.75;13.85;;;4.90;99.90;;;;;;5090203;28;20030;-49
2022/11/14 06:22:33;;;;;;;18.42;13.85;;;4.90;99.90;;;;;;5075896;22;20512;-47
2022/11/14 06:24:58;;;;;;;18.88;13.48;;;4.80;99.90;;;;;;5051345;28;20028;-44
2022/11/14 06:27:24;;;;;;;17.98;14.20;;;4.80;99.90;;;;;;5051196;28;20489;-44
2022/11/14 06:29:49;;;;;;;17.70;12.57;;;4.80;99.90;;;;;;5051137;28;20037;-43
2022/11/14 06:32:15;;;;;;;21.48;14.30;;;4.90;99.90;;;;;;5061943;28;20036;-48
2022/11/14 06:34:40;;;;;;;21.02;13.75;;;4.90;99.90;;;;;;5071456;28;20171;-48
2022/11/14 06:37:05;;;;;;;16.40;13.10;;;5.00;99.90;;;;;;5073208;28;20025;-45
2022/11/14 06:39:31;;;;;;;17.33;13.23;;;4.90;99.90;;;;;;5075148;28;20400;-46
2022/11/14 06:41:57;;;;;;;20.45;14.52;;;4.90;99.90;;;;;;5074455;28;20044;-45
2022/11/14 06:44:22;;;;;;;15.73;11.95;;;5.00;99.90;;;;;;5074945;28;20545;-46
2022/11/14 06:46:48;;;;;;;17.98;13.52;;;5.10;99.90;;;;;;5073930;28;20028;-44
2022/11/14 06:49:13;;;;;;;17.02;12.65;;;5.20;99.90;;;;;;5073836;28;20111;-46
2022/11/14 06:51:39;;;;;;;16.92;13.10;;;5.30;99.90;;;;;;5075002;28;20035;-48
2022/11/14 06:54:05;;;;;;;21.90;14.55;;;5.30;99.90;;;;;;5074384;28;20020;-44
2022/11/14 06:56:30;;;;;;;19.02;13.68;;;5.40;99.90;;;;;;5074845;28;20027;-45
2022/11/14 06:58:56;;;;;;;17.20;14.13;;;5.30;99.90;;;;;;5075019;28;20025;-44
2022/11/14 07:01:24;;;;;;;17.17;14.05;;;5.30;99.90;;;;;;5074954;28;20042;-42
2022/11/14 07:03:51;;;;;;;22.17;15.18;;;5.40;99.90;;;;;;5072777;28;20056;-45
2022/11/14 07:06:24;;;;;;;18.75;13.57;;;5.40;99.90;;;;;;5074752;28;20052;-44
2022/11/14 07:08:51;;;;;;;19.20;13.57;;;5.60;99.90;;;;;;5074871;28;20098;-44
2022/11/14 07:11:22;;;;;;;20.50;13.77;;;5.40;99.90;;;;;;5075133;28;20100;-43
2022/11/14 07:13:49;;;;;;;21.38;14.30;;;5.40;99.90;;;;;;5074506;28;20021;-44
2022/11/14 07:16:14;;;;;;;19.23;13.68;;;5.50;99.90;;;;;;5075329;28;20524;-45
2022/11/14 07:18:40;;;;;;;19.45;13.43;;;5.50;99.90;;;;;;5075236;28;20028;-44
2022/11/14 07:21:05;;;;;;;17.55;13.48;;;5.50;99.90;;;;;;5074805;28;20045;-44
2022/11/14 07:23:32;;;;;;;17.58;12.55;;;5.50;99.90;;;;;;5074190;28;20036;-46
2022/11/14 07:26:02;;;;;;;17.58;13.00;;;5.50;99.90;;;;;;5075169;28;20036;-44
2022/11/14 07:28:28;;;;;;;17.98;13.05;;;5.60;99.90;;;;;;5074372;28;20025;-44
2022/11/14 07:30:53;;;;;;;21.05;14.20;;;5.70;99.90;;;;;;5074366;28;20044;-47
2022/11/14 07:33:19;;;;;;;19.48;14.00;;;5.70;99.90;;;;;;5073675;28;20064;-50
2022/11/14 07:35:45;;;;;;;22.25;15.40;;;5.70;99.90;;;;;;5074576;28;20032;-45
2022/11/14 07:38:10;;;;;;;20.60;14.32;;;5.70;99.90;;;;;;5074415;28;20023;-44
2022/11/14 07:40:36;;;;;;;21.85;15.85;;;5.80;99.90;;;;;;5074438;28;20086;-47
2022/11/14 07:43:02;;;;;;;21.38;14.85;;;5.90;99.90;;;;;;5073429;28;20391;-42
2022/11/14 07:45:28;;;;;;;25.85;16.00;;;5.90;99.90;;;;;;5074135;28;20066;-46
2022/11/14 07:47:58;;;;;;;23.65;16.50;;;5.90;99.90;;;;;;5071590;28;20033;-45
2022/11/14 07:50:26;;;;;;;32.72;16.88;;;6.00;99.90;;;;;;5073711;28;20435;-44
2022/11/14 07:52:52;;;;;;;27.88;17.45;;;6.00;99.90;;;;;;5073213;28;20480;-44
2022/11/14 07:55:19;;;;;;;26.85;18.35;;;6.00;99.90;;;;;;5074273;28;20506;-46
2022/11/14 07:57:45;;;;;;;30.88;19.08;;;6.10;99.90;;;;;;5074033;28;20024;-48
2022/11/14 08:00:12;;;;;;;34.80;20.17;;;6.10;99.90;;;;;;5073838;28;20103;-47
2022/11/14 08:02:37;;;;;;;33.92;20.67;;;6.10;99.90;;;;;;5071856;28;20531;-44
2022/11/14 08:05:03;;;;;;;37.60;22.30;;;6.10;99.90;;;;;;5073598;28;20037;-46
2022/11/14 08:07:29;;;;;;;36.40;21.70;;;6.10;99.90;;;;;;5072346;28;20077;-47
2022/11/14 08:09:54;;;;;;;39.45;23.52;;;6.20;99.90;;;;;;5073592;28;20098;-44
2022/11/14 08:12:20;;;;;;;39.03;23.55;;;6.20;99.90;;;;;;5072734;28;20025;-44
2022/11/14 08:14:45;;;;;;;39.58;23.88;;;6.30;99.90;;;;;;5072224;28;20029;-44
2022/11/14 08:17:11;;;;;;;44.10;22.88;;;6.30;99.90;;;;;;5073113;28;20083;-43
2022/11/14 08:19:36;;;;;;;41.60;23.58;;;6.40;99.90;;;;;;5071761;28;20031;-45
2022/11/14 08:22:02;;;;;;;42.88;22.85;;;6.50;99.90;;;;;;5059389;28;20488;-48
2022/11/14 08:24:27;;;;;;;33.45;22.05;;;6.50;99.90;;;;;;5073118;28;20059;-46
2022/11/14 08:26:53;;;;;;;35.92;22.30;;;6.50;99.90;;;;;;5072481;28;20040;-49
2022/11/14 08:29:19;;;;;;;35.40;22.63;;;6.50;99.90;;;;;;5073450;28;20028;-46
2022/11/14 08:31:45;;;;;;;33.72;21.02;;;6.60;99.90;;;;;;5072942;28;20420;-51
2022/11/14 08:34:10;;;;;;;38.40;23.65;;;6.60;99.90;;;;;;5072347;28;20025;-50
2022/11/14 08:36:36;;;;;;;40.47;24.00;;;6.60;99.90;;;;;;5072990;28;20044;-48
2022/11/14 08:39:02;;;;;;;36.92;22.50;;;6.70;99.90;;;;;;5071764;28;20016;-47
2022/11/14 08:41:27;;;;;;;38.30;21.85;;;6.70;99.90;;;;;;5071018;28;20502;-47
2022/11/14 08:43:53;;;;;;;40.65;21.55;;;6.70;99.90;;;;;;5069487;28;20028;-45
2022/11/14 08:46:19;;;;;;;38.22;21.77;;;6.70;99.90;;;;;;5072683;28;20028;-47
2022/11/14 08:48:44;;;;;;;38.55;23.00;;;6.80;99.90;;;;;;5072900;28;20028;-47
2022/11/14 08:51:10;;;;;;;43.95;21.90;;;7.00;99.90;;;;;;5072701;28;20032;-44
2022/11/14 08:53:35;;;;;;;37.58;22.98;;;7.00;99.90;;;;;;5070983;28;20078;-46
2022/11/14 08:56:01;;;;;;;35.72;22.02;;;7.00;99.90;;;;;;5072658;28;20115;-45
2022/11/14 08:58:29;;;;;;;40.70;22.88;;;7.00;99.90;;;;;;5071440;28;20031;-46
2022/11/14 09:00:59;;;;;;;35.25;22.00;;;7.10;99.90;;;;;;5072603;28;20028;-46
2022/11/14 09:03:25;;;;;;;36.17;21.77;;;7.10;99.90;;;;;;5072057;28;20025;-46
2022/11/14 09:05:51;;;;;;;33.58;20.90;;;7.20;99.90;;;;;;5072392;28;20035;-47
2022/11/14 09:08:17;;;;;;;39.47;22.08;;;7.20;99.90;;;;;;5072240;28;20060;-47
2022/11/14 09:10:42;;;;;;;33.47;21.00;;;7.30;99.90;;;;;;5072280;28;20056;-46
2022/11/14 09:13:08;;;;;;;31.60;20.73;;;7.40;99.90;;;;;;5071318;28;20028;-47
2022/11/14 09:15:33;;;;;;;35.67;21.85;;;7.50;99.90;;;;;;5072397;28;20028;-47
2022/11/14 09:17:59;;;;;;;34.17;20.92;;;7.50;99.90;;;;;;5072243;28;20024;-46
2022/11/14 09:20:31;;;;;;;37.40;21.20;;;7.60;99.90;;;;;;5067217;28;20379;-50
2022/11/14 09:23:01;;;;;;;29.67;19.10;;;7.60;99.90;;;;;;5068271;28;20447;-46
2022/11/14 09:25:28;;;;;;;34.05;19.33;;;7.70;99.90;;;;;;5068895;28;20024;-51
2022/11/14 09:27:54;;;;;;;36.95;20.95;;;7.80;99.90;;;;;;5068841;28;20082;-45
2022/11/14 09:30:21;;;;;;;34.88;22.35;;;8.00;99.90;;;;;;5068944;28;20028;-46
2022/11/14 09:32:46;;;;;;;30.45;19.40;;;8.10;99.90;;;;;;5057202;28;20066;-48
2022/11/14 09:35:12;;;;;;;28.17;19.40;;;8.20;99.90;;;;;;5048574;28;20021;-47
2022/11/14 09:37:38;;;;;;;31.88;19.17;;;8.20;99.90;;;;;;5049814;28;20032;-46
2022/11/14 09:40:04;;;;;;;29.60;18.65;;;8.20;99.90;;;;;;5061559;28;20032;-50
2022/11/14 09:42:49;;;;;;;28.88;18.33;;;8.50;99.90;;;;;;5051056;28;20041;-49
2022/11/14 09:45:16;;;;;;;26.13;17.52;;;8.60;99.90;;;;;;5058816;28;20032;-48
2022/11/14 09:47:55;;;;;;;28.00;15.32;;;9.20;99.90;;;;;;5055624;28;20041;-48
2022/11/14 09:50:25;;;;;;;24.98;15.68;;;9.30;99.90;;;;;;5047074;28;20068;-51
2022/11/14 09:53:02;;;;;;;22.75;14.75;;;9.30;99.90;;;;;;5053578;28;20017;-47
2022/11/14 09:55:30;;;;;;;23.17;14.23;;;9.20;99.90;;;;;;5068352;28;20033;-43
2022/11/14 09:57:56;;;;;;;21.05;13.95;;;9.20;99.90;;;;;;5077177;28;20024;-44
2022/11/14 10:00:24;;;;;;;22.73;14.25;;;9.00;99.90;;;;;;5087490;28;20036;-46
2022/11/14 10:03:15;;;;;;;20.75;14.18;;;9.00;99.90;;;;;;5087224;28;20028;-47
2022/11/14 10:06:25;;;;;;;18.70;13.25;;;9.50;99.90;;;;;;5076721;28;20113;-47
2022/11/14 10:09:15;;;;;;;20.40;13.82;;;9.70;99.90;;;;;;5045666;28;20556;-48
2022/11/14 10:12:03;;;;;;;19.27;13.60;;;9.70;99.90;;;;;;5066819;28;20045;-47
2022/11/14 10:14:56;;;;;;;22.15;13.60;;;9.60;99.90;;;;;;5066533;28;20178;-48
2022/11/14 10:17:45;;;;;;;19.88;14.32;;;9.40;99.90;;;;;;5067415;28;20017;-48
2022/11/14 10:20:22;;;;;;;19.65;13.40;;;9.30;99.90;;;;;;5067555;28;20029;-48
2022/11/14 10:23:20;;;;;;;19.25;12.48;;;9.20;99.90;;;;;;5082750;28;20020;-48
2022/11/14 10:25:56;;;;;;;19.27;13.27;;;9.20;99.90;;;;;;5067163;28;20119;-47
2022/11/14 10:28:37;;;;;;;22.42;14.20;;;9.00;99.90;;;;;;5066092;28;20013;-47
2022/11/14 10:31:38;;;;;;;18.60;13.88;;;8.90;99.90;;;;;;5056060;28;20037;-45
2022/11/14 10:34:18;;;;;;;20.85;12.95;;;9.00;99.90;;;;;;5051278;28;20063;-47
2022/11/14 10:37:16;;;;;;;21.27;13.45;;;8.90;99.90;;;;;;5053884;28;20090;-48
2022/11/14 10:39:54;;;;;;;20.40;13.13;;;8.90;99.90;;;;;;5052687;28;20052;-48
2022/11/14 10:42:30;;;;;;;22.67;13.48;;;8.80;99.90;;;;;;5053066;28;20017;-45
2022/11/14 10:45:06;;;;;;;17.42;12.73;;;8.90;99.90;;;;;;5053923;28;20484;-46
2022/11/14 10:47:39;;;;;;;19.95;13.80;;;9.00;99.90;;;;;;5053946;28;20051;-45
2022/11/14 10:50:16;;;;;;;20.77;13.38;;;9.10;99.90;;;;;;5053933;28;20025;-47
2022/11/14 10:52:44;;;;;;;105.57;66.63;;;9.10;99.90;;;;;;5053098;28;20404;-48
2022/11/14 10:55:15;;;;;;;25.95;16.77;;;9.20;99.90;;;;;;5053689;28;20025;-46
2022/11/14 10:57:42;;;;;;;21.20;13.77;;;9.30;99.90;;;;;;5053881;28;20049;-45
2022/11/14 11:00:17;;;;;;;18.90;12.07;;;9.40;99.90;;;;;;5053839;28;20476;-45
2022/11/14 11:02:50;;;;;;;14.17;11.63;;;9.40;99.90;;;;;;5052947;28;20079;-47
2022/11/14 11:05:19;;;;;;;22.02;13.80;;;9.40;99.90;;;;;;5062385;28;20029;-45
2022/11/14 11:13:30;;;;;;;19.02;12.98;;;9.80;99.90;;;;;;5052512;28;20512;-49
2022/11/14 11:15:58;;;;;;;19.40;12.77;;;10.00;99.90;;;;;;5051332;28;20489;-44
2022/11/14 11:18:30;;;;;;;18.92;13.43;;;10.10;99.90;;;;;;5052889;28;20051;-46
2022/11/14 11:21:16;;;;;;;18.50;13.65;;;10.10;99.90;;;;;;5052757;28;20021;-46
2022/11/14 11:23:55;;;;;;;16.88;12.63;;;10.10;99.90;;;;;;5052526;28;20091;-46
2022/11/14 11:26:24;;;;;;;17.98;12.18;;;10.00;99.90;;;;;;5055014;28;20033;-45
2022/11/14 11:29:08;;;;;;;18.65;12.57;;;10.00;99.90;;;;;;5052019;28;20060;-44
2022/11/14 11:31:54;;;;;;;16.15;11.85;;;10.20;99.90;;;;;;5052736;28;20033;-44
2022/11/14 11:34:23;;;;;;;;;;;10.30;99.90;;;;;;5053790;28;20029;-44
2022/11/14 11:36:55;;;;;;;23.23;12.63;;;10.20;99.90;;;;;;5053620;28;19931;-44
2022/11/14 11:39:29;;;;;;;18.58;11.65;;;10.20;99.90;;;;;;5052999;28;20029;-43
2022/11/14 11:41:58;;;;;;;16.95;11.88;;;10.40;99.90;;;;;;5051562;28;20024;-45
2022/11/14 11:44:33;;;;;;;18.58;11.73;;;10.60;99.90;;;;;;5053846;28;20445;-45
2022/11/14 11:47:00;;;;;;;18.20;11.90;;;10.60;99.90;;;;;;5053197;28;20028;-44
2022/11/14 11:49:32;;;;;;;16.92;11.63;;;10.50;99.90;;;;;;5052986;28;20406;-44
2022/11/14 11:52:04;;;;;;;16.58;11.05;;;10.40;99.90;;;;;;5051877;28;20052;-43
2022/11/14 11:54:40;;;;;;;18.10;11.00;;;10.40;99.90;;;;;;5052906;28;20056;-44
2022/11/14 11:57:13;;;;;;;16.45;10.85;;;10.50;99.90;;;;;;5051617;28;20029;-43
2022/11/14 11:59:47;;;;;;;14.23;10.50;;;10.50;99.90;;;;;;5052178;28;20029;-45
2022/11/14 12:02:26;;;;;;;15.38;10.07;;;10.60;99.90;;;;;;5037563;28;20025;-46
2022/11/14 12:04:55;;;;;;;13.70;9.80;;;10.60;99.90;;;;;;5050963;28;20408;-44
2022/11/14 12:07:23;;;;;;;16.23;9.15;;;10.70;99.90;;;;;;5047209;28;20037;-44
2022/11/14 12:09:50;;;;;;;13.45;9.93;;;10.70;99.90;;;;;;5039697;28;20028;-46
2022/11/14 12:12:31;;;;;;;10.38;8.93;;;10.60;99.90;;;;;;5035646;28;20037;-42
2022/11/14 12:15:17;;;;;;;10.90;8.55;;;10.70;99.90;;;;;;5035217;28;20105;-46
2022/11/14 12:17:48;;;;;;;13.25;9.80;;;10.60;99.90;;;;;;5052005;28;20388;-46
2022/11/14 12:20:39;;;;;;;12.27;8.88;;;10.60;99.90;;;;;;5039865;28;20124;-45
2022/11/14 12:23:30;;;;;;;11.40;8.90;;;10.60;99.90;;;;;;5032636;28;20029;-45
2022/11/14 12:26:23;;;;;;;11.60;8.85;;;10.60;99.90;;;;;;5038904;28;20036;-46
2022/11/14 12:29:16;;;;;;;10.77;8.07;;;10.60;99.90;;;;;;5043778;28;20090;-46
2022/11/14 12:31:42;;;;;;;11.55;8.32;;;10.60;99.90;;;;;;5037229;28;20048;-45
2022/11/14 12:34:24;;;;;;;11.65;9.00;;;10.60;99.90;;;;;;5031378;28;20031;-48
2022/11/14 12:36:50;;;;;;;13.40;9.95;;;10.60;99.90;;;;;;5032620;28;20038;-47
2022/11/14 12:39:27;;;;;;;13.57;9.38;;;10.50;99.90;;;;;;5041181;28;20029;-43
2022/11/14 12:42:08;;;;;;;13.90;9.88;;;10.50;99.90;;;;;;5031388;28;20021;-47
2022/11/14 12:44:36;;;;;;;14.02;9.90;;;10.40;99.90;;;;;;5038958;28;20102;-45
2022/11/14 12:47:05;;;;;;;14.93;11.27;;;10.40;99.90;;;;;;5047220;28;20024;-43
2022/11/14 12:49:55;;;;;;;15.15;9.95;;;10.40;99.90;;;;;;5049547;28;20033;-44